Time;durP1;ratioP1;P1;durP2;ratioP2;P2;SDS_P1;SDS_P2;PMS_P1;PMS_P2;Temp;Humidity;BMP_temperature;BMP_pressure;BME280_temperature;BME280_humidity;BME280_pressure;Samples;Min_cycle;Max_cycle;Signal;HPM_P1;HPM_P2
2022/03/29 00:01:36;;;;;;;;;;;;;;;1.16;52.35;97388.81;110899;1239;60526;-64
2022/03/29 00:04:06;;;;;;;;;;;;;;;1.17;53.23;97384.63;110878;1239;72279;-65
2022/03/29 00:06:35;;;;;;;;;;;;;;;1.18;53.62;97379.29;110858;1241;68636;-63
2022/03/29 00:09:06;;;;;;;;;;;;;;;1.16;53.43;97375.06;111141;1240;69474;-62
2022/03/29 00:11:36;;;;;;;;;;;;;;;1.09;53.92;97373.41;110739;1241;60479;-65
2022/03/29 00:14:08;;;;;;;;;;;;;;;0.98;54.89;97367.80;110999;1241;60421;-63
2022/03/29 00:16:40;;;;;;;;;;;;;;;0.90;56.15;97358.46;111029;1240;71560;-64
2022/03/29 00:19:11;;;;;;;;;;;;;;;0.85;56.02;97358.64;110856;1240;68529;-63
2022/03/29 00:21:41;;;;;;;;;;;;;;;0.82;55.37;97352.23;110822;1240;69690;-66
2022/03/29 00:24:12;;;;;;;;;;;;;;;0.81;54.66;97349.70;110903;1240;60496;-63
2022/03/29 00:26:42;;;;;;;;;;;;;;;0.81;56.01;97344.71;110876;1238;60472;-64
2022/03/29 00:29:13;;;;;;;;;;;;;;;0.79;52.15;97340.51;110833;1240;71462;-66
2022/03/29 00:31:43;;;;;;;;;;;;;;;0.76;51.54;97339.39;110841;1241;67679;-64
2022/03/29 00:34:13;;;;;;;;;;;;;;;0.74;51.97;97335.19;111056;1240;69259;-63
2022/03/29 00:36:43;;;;;;;;;;;;;;;0.71;54.59;97335.95;110807;1241;60492;-64
2022/03/29 00:39:13;;;;;;;;;;;;;;;0.66;54.58;97335.80;111162;1239;60511;-64
2022/03/29 00:41:43;;;;;;;;;;;;;;;0.56;56.50;97333.22;110778;1241;71582;-63
2022/03/29 00:44:16;;;;;;;;;;;;;;;0.49;58.12;97330.04;111037;1241;68792;-64
2022/03/29 00:46:47;;;;;;;;;;;;;;;0.44;56.40;97324.54;110984;1240;69446;-64
2022/03/29 00:49:19;;;;;;;;;;;;;;;0.40;58.98;97323.64;110846;1241;60881;-63
2022/03/29 00:51:49;;;;;;;;;;;;;;;0.35;58.19;97315.42;110835;1241;60732;-64
2022/03/29 00:54:19;;;;;;;;;;;;;;;0.28;57.11;97315.99;110837;1239;70457;-63
2022/03/29 00:56:50;;;;;;;;;;;;;;;0.24;58.88;97311.67;110782;1239;67863;-63
2022/03/29 00:59:20;;;;;;;;;;;;;;;0.23;59.78;97311.35;111074;1240;69393;-63
2022/03/29 01:01:50;;;;;;;;;;;;;;;0.21;57.64;97306.79;111019;1241;60480;-63
2022/03/29 01:04:21;;;;;;;;;;;;;;;0.18;55.92;97302.61;111038;1240;60483;-66
2022/03/29 01:06:53;;;;;;;;;;;;;;;0.19;58.44;97300.34;110779;1241;72004;-66
2022/03/29 01:09:22;;;;;;;;;;;;;;;0.14;58.19;97298.63;110955;1240;69068;-66
2022/03/29 01:11:53;;;;;;;;;;;;;;;0.03;59.52;97288.73;110919;1239;69430;-64
2022/03/29 01:14:23;;;;;;;;;;;;;;;-0.04;58.29;97282.95;110775;1241;60539;-62
2022/03/29 01:19:43;;;;;;;;;;;;;;;-0.08;54.74;97276.93;110866;1241;72288;-64
2022/03/29 01:22:13;;;;;;;;;;;;;;;-0.07;56.52;97274.65;110784;1241;67697;-64
2022/03/29 01:24:46;;;;;;;;;;;;;;;-0.05;55.44;97272.88;110857;1241;68319;-64
2022/03/29 01:27:15;;;;;;;;;;;;;;;-0.04;55.79;97270.45;110795;1240;60590;-62
2022/03/29 01:29:46;;;;;;;;;;;;;;;-0.05;56.35;97263.62;110898;1241;60566;-62
2022/03/29 01:32:15;;;;;;;;;;;;;;;-0.07;57.06;97264.70;111056;1240;71526;-64
2022/03/29 01:34:45;;;;;;;;;;;;;;;-0.09;59.03;97267.17;110848;1241;68520;-66
2022/03/29 01:37:16;;;;;;;;;;;;;;;-0.11;58.91;97262.95;110646;1241;68626;-62
2022/03/29 01:39:47;;;;;;;;;;;;;;;-0.13;58.66;97261.66;111141;1240;60420;-63
2022/03/29 01:42:18;;;;;;;;;;;;;;;-0.13;59.56;97257.70;111032;1239;60475;-63
2022/03/29 01:44:47;;;;;;;;;;;;;;;-0.13;60.00;97252.59;110789;1241;72814;-65
2022/03/29 01:47:21;;;;;;;;;;;;;;;-0.14;60.22;97253.29;111153;1239;68320;-63
2022/03/29 01:49:50;;;;;;;;;;;;;;;-0.20;59.89;97250.77;110643;1241;69305;-63
2022/03/29 01:52:20;;;;;;;;;;;;;;;-0.27;60.64;97249.59;111009;1240;60571;-64
2022/03/29 01:54:49;;;;;;;;;;;;;;;-0.33;58.12;97241.40;110921;1239;60472;-62
2022/03/29 01:57:25;;;;;;;;;;;;;;;-0.38;56.65;97237.12;110837;1241;72536;-64
2022/03/29 02:02:47;;;;;;;;;;;;;;;-0.46;58.48;97236.68;110879;1240;67739;-62
2022/03/29 02:05:18;;;;;;;;;;;;;;;-0.50;60.54;97234.76;110809;1241;60500;-62
2022/03/29 02:07:48;;;;;;;;;;;;;;;-0.56;61.30;97233.23;111065;1241;60532;-64
2022/03/29 02:10:18;;;;;;;;;;;;;;;-0.61;61.17;97231.15;111065;1239;72273;-65
2022/03/29 02:12:49;;;;;;;;;;;;;;;-0.60;62.27;97229.93;110932;1241;68609;-64
2022/03/29 02:15:19;;;;;;;;;;;;;;;-0.62;60.32;97231.88;111048;1240;69312;-63
2022/03/29 02:17:49;;;;;;;;;;;;;;;-0.70;58.38;97227.85;111057;1239;60534;-63
2022/03/29 02:20:20;;;;;;;;;;;;;;;-0.79;61.27;97224.70;111010;1240;60478;-62
2022/03/29 02:22:50;;;;;;;;;;;;;;;-0.84;62.05;97220.91;110830;1241;71691;-63
2022/03/29 02:25:21;;;;;;;;;;;;;;;-0.86;62.31;97223.04;110749;1241;68079;-63
2022/03/29 02:27:51;;;;;;;;;;;;;;;-0.88;62.55;97224.29;110998;1240;68603;-63
2022/03/29 02:30:20;;;;;;;;;;;;;;;-0.90;62.42;97218.89;110742;1241;60570;-66
2022/03/29 02:32:50;;;;;;;;;;;;;;;-0.90;62.46;97222.83;111038;1241;60543;-64
2022/03/29 02:35:21;;;;;;;;;;;;;;;-0.91;60.47;97223.20;110957;1240;71591;-64
2022/03/29 02:37:51;;;;;;;;;;;;;;;-0.91;60.73;97218.23;110552;1241;67868;-63
2022/03/29 02:40:22;;;;;;;;;;;;;;;-0.93;63.04;97222.40;110957;1241;69258;-65
2022/03/29 02:42:53;;;;;;;;;;;;;;;-0.98;62.24;97218.44;111019;1240;60896;-63
2022/03/29 02:45:25;;;;;;;;;;;;;;;-1.05;57.41;97221.02;111033;1241;60450;-63
2022/03/29 02:47:56;;;;;;;;;;;;;;;-1.15;56.73;97217.73;111017;1240;71872;-65
2022/03/29 02:50:26;;;;;;;;;;;;;;;-1.23;57.36;97217.46;110955;1241;68504;-65
2022/03/29 02:53:01;;;;;;;;;;;;;;;-1.28;61.81;97220.69;111026;1240;69442;-64
2022/03/29 02:55:33;;;;;;;;;;;;;;;-1.31;63.72;97219.04;110255;1241;693588;-63
2022/03/29 02:58:03;;;;;;;;;;;;;;;-1.30;63.60;97216.27;111102;1240;60426;-63
2022/03/29 03:00:34;;;;;;;;;;;;;;;-1.30;63.83;97213.89;110796;1241;71812;-63
2022/03/29 03:03:06;;;;;;;;;;;;;;;-1.30;63.59;97216.48;110992;1241;68542;-62
2022/03/29 03:05:36;;;;;;;;;;;;;;;-1.31;63.37;97214.95;110834;1241;68702;-65
2022/03/29 03:08:06;;;;;;;;;;;;;;;-1.34;61.11;97217.44;111037;1240;60497;-63
2022/03/29 03:10:36;;;;;;;;;;;;;;;-1.37;59.44;97217.33;111135;1240;60475;-64
2022/03/29 03:13:06;;;;;;;;;;;;;;;-1.37;60.58;97218.05;110792;1241;71550;-65
2022/03/29 03:15:35;;;;;;;;;;;;;;;-1.38;61.79;97217.21;110928;1240;67808;-63
2022/03/29 03:18:05;;;;;;;;;;;;;;;-1.42;63.05;97217.48;110968;1240;69967;-63
2022/03/29 03:20:35;;;;;;;;;;;;;;;-1.46;63.83;97216.91;110917;1240;60976;-63
2022/03/29 03:23:04;;;;;;;;;;;;;;;-1.48;64.73;97214.39;110834;1241;60477;-63
2022/03/29 03:25:34;;;;;;;;;;;;;;;-1.48;65.01;97215.27;111085;1240;72313;-63
2022/03/29 03:28:04;;;;;;;;;;;;;;;-1.49;65.17;97218.03;111122;1240;67661;-63
2022/03/29 03:30:34;;;;;;;;;;;;;;;-1.49;65.40;97216.16;110754;1241;69382;-63
2022/03/29 03:33:04;;;;;;;;;;;;;;;-1.48;65.17;97216.30;110584;1241;60538;-62
2022/03/29 03:35:34;;;;;;;;;;;;;;;-1.50;65.14;97209.00;111011;1241;60529;-65
2022/03/29 03:38:03;;;;;;;;;;;;;;;-1.50;65.20;97206.27;110894;1241;72303;-63
2022/03/29 03:40:33;;;;;;;;;;;;;;;-1.52;64.64;97205.47;110767;1241;68618;-63
2022/03/29 03:43:05;;;;;;;;;;;;;;;-1.54;65.02;97203.80;110751;1241;69307;-63
2022/03/29 03:45:35;;;;;;;;;;;;;;;-1.56;64.53;97202.83;110842;1239;60463;-63
2022/03/29 03:48:05;;;;;;;;;;;;;;;-1.57;64.28;97197.40;110762;1241;60498;-63
2022/03/29 03:50:34;;;;;;;;;;;;;;;-1.57;64.47;97202.00;110939;1240;71474;-64
2022/03/29 03:53:04;;;;;;;;;;;;;;;-1.56;64.61;97199.76;110738;1241;68662;-63
2022/03/29 03:55:33;;;;;;;;;;;;;;;-1.53;64.30;97204.30;110890;1240;69440;-65
2022/03/29 03:58:03;;;;;;;;;;;;;;;-1.53;63.66;97200.70;110825;1240;60502;-64
2022/03/29 04:00:33;;;;;;;;;;;;;;;-1.54;62.95;97202.94;110734;1241;60545;-64
2022/03/29 04:03:06;;;;;;;;;;;;;;;-1.52;65.03;97209.08;110740;1241;73154;-65
2022/03/29 04:05:36;;;;;;;;;;;;;;;-1.51;64.55;97209.89;110735;1241;68040;-64
2022/03/29 04:08:06;;;;;;;;;;;;;;;-1.49;63.33;97209.83;110751;1241;68851;-67
2022/03/29 04:10:35;;;;;;;;;;;;;;;-1.49;61.59;97202.80;110708;1241;60617;-64
2022/03/29 04:13:04;;;;;;;;;;;;;;;-1.50;58.96;97203.70;110903;1241;60507;-63
2022/03/29 04:15:33;;;;;;;;;;;;;;;-1.55;61.27;97208.59;110716;1241;72357;-64
2022/03/29 04:18:02;;;;;;;;;;;;;;;-1.58;62.94;97209.05;110866;1241;67901;-64
2022/03/29 04:20:32;;;;;;;;;;;;;;;-1.64;63.36;97207.84;110742;1240;68440;-66
2022/03/29 04:23:01;;;;;;;;;;;;;;;-1.67;63.90;97208.77;110711;1241;60543;-65
2022/03/29 04:25:31;;;;;;;;;;;;;;;-1.67;64.65;97210.48;110982;1241;60875;-63
2022/03/29 04:28:00;;;;;;;;;;;;;;;-1.66;62.87;97210.30;110782;1241;72480;-64
2022/03/29 04:30:30;;;;;;;;;;;;;;;-1.65;65.14;97210.63;110601;1241;68691;-64
2022/03/29 04:32:59;;;;;;;;;;;;;;;-1.63;64.68;97209.34;110702;1241;68436;-63
2022/03/29 04:35:28;;;;;;;;;;;;;;;-1.59;63.85;97215.21;111106;1239;60525;-63
2022/03/29 04:37:58;;;;;;;;;;;;;;;-1.55;65.06;97215.45;110652;1241;60530;-63
2022/03/29 04:40:27;;;;;;;;;;;;;;;-1.50;63.78;97213.64;111143;1240;71665;-65
2022/03/29 04:43:00;;;;;;;;;;;;;;;-1.46;60.98;97208.73;110828;1241;67740;-64
2022/03/29 04:45:29;;;;;;;;;;;;;;;-1.42;64.38;97212.02;110809;1240;68452;-64
2022/03/29 04:47:59;;;;;;;;;;;;;;;-1.38;63.35;97213.79;110783;1240;60495;-63
2022/03/29 04:50:29;;;;;;;;;;;;;;;-1.34;64.24;97211.77;110812;1240;60490;-62
2022/03/29 04:52:58;;;;;;;;;;;;;;;-1.26;64.09;97210.20;110785;1241;72147;-64
2022/03/29 04:55:27;;;;;;;;;;;;;;;-1.20;64.32;97208.80;110809;1241;68692;-64
2022/03/29 04:57:57;;;;;;;;;;;;;;;-1.11;62.78;97200.00;110851;1239;68696;-64
2022/03/29 05:00:26;;;;;;;;;;;;;;;-1.00;62.87;97202.77;110997;1241;60550;-63
2022/03/29 05:02:56;;;;;;;;;;;;;;;-0.89;63.70;97202.94;111059;1240;60473;-64
2022/03/29 05:05:25;;;;;;;;;;;;;;;-0.77;63.35;97203.09;111045;1240;72271;-65
2022/03/29 05:07:54;;;;;;;;;;;;;;;-0.68;63.07;97204.69;111158;1240;67846;-62
2022/03/29 05:10:24;;;;;;;;;;;;;;;-0.62;62.49;97207.20;111042;1240;68607;-64
2022/03/29 05:12:54;;;;;;;;;;;;;;;-0.52;59.14;97198.52;111095;1241;60473;-64
2022/03/29 05:15:23;;;;;;;;;;;;;;;-0.47;58.20;97191.70;111031;1240;60525;-64
2022/03/29 05:17:52;;;;;;;;;;;;;;;-0.47;60.08;97196.84;111162;1241;72177;-66
2022/03/29 05:20:21;;;;;;;;;;;;;;;-0.46;62.55;97195.27;110767;1241;68017;-63
2022/03/29 05:22:51;;;;;;;;;;;;;;;-0.43;62.28;97193.27;111064;1240;68475;-63
2022/03/29 05:25:24;;;;;;;;;;;;;;;-0.36;62.19;97192.86;110835;1241;60620;-64
2022/03/29 05:27:57;;;;;;;;;;;;;;;-0.26;62.10;97192.69;110919;1240;60486;-63
2022/03/29 05:30:26;;;;;;;;;;;;;;;-0.18;62.49;97191.08;110977;1240;72754;-63
2022/03/29 05:33:00;;;;;;;;;;;;;;;-0.07;61.76;97187.77;111053;1241;68003;-64
2022/03/29 05:35:30;;;;;;;;;;;;;;;0.10;61.01;97188.08;110934;1240;69444;-64
2022/03/29 05:38:02;;;;;;;;;;;;;;;0.24;61.00;97186.20;110823;1241;60506;-62
2022/03/29 05:40:31;;;;;;;;;;;;;;;0.41;61.54;97183.70;110772;1241;60468;-61
2022/03/29 05:43:01;;;;;;;;;;;;;;;0.56;61.31;97184.88;111110;1238;72384;-62
2022/03/29 05:45:31;;;;;;;;;;;;;;;0.72;61.75;97183.95;111032;1239;68762;-63
2022/03/29 05:50:48;;;;;;;;;;;;;;;1.14;60.40;97179.77;111109;1238;60541;-63
2022/03/29 05:53:17;;;;;;;;;;;;;;;1.37;59.94;97179.75;110916;1238;60507;-62
2022/03/29 05:55:48;;;;;;;;;;;;;;;1.62;59.00;97181.15;111135;1238;71518;-61
2022/03/29 05:58:17;;;;;;;;;;;;;;;1.88;58.03;97183.00;111167;1238;67743;-65
2022/03/29 06:00:46;;;;;;;;;;;;;;;2.09;57.69;97177.46;110805;1241;69424;-64
2022/03/29 06:03:16;;;;;;;;;;;;;;;2.34;57.09;97176.04;110981;1241;60474;-64
2022/03/29 06:05:46;;;;;;;;;;;;;;;2.60;55.74;97174.55;110887;1241;60520;-61
2022/03/29 06:08:17;;;;;;;;;;;;;;;2.93;55.23;97170.64;111080;1240;72728;-61
2022/03/29 06:10:50;;;;;;;;;;;;;;;3.25;54.19;97162.23;110831;1241;67751;-63
2022/03/29 06:13:26;;;;;;;;;;;;;;;3.64;52.88;97163.49;110795;1241;68739;-62
2022/03/29 06:15:55;;;;;;;;;;;;;;;4.02;51.65;97163.86;110932;1238;60539;-64
2022/03/29 06:18:26;;;;;;;;;;;;;;;4.29;50.65;97159.16;111052;1240;60494;-62
2022/03/29 06:20:55;;;;;;;;;;;;;;;4.60;49.74;97159.27;111085;1239;72893;-62
2022/03/29 06:23:24;;;;;;;;;;;;;;;4.81;49.28;97156.82;110948;1241;67743;-62
2022/03/29 06:25:57;;;;;;;;;;;;;;;5.12;48.22;97159.10;110871;1241;69634;-62
2022/03/29 06:28:27;;;;;;;;;;;;;;;5.37;47.99;97160.98;110779;1241;60510;-61
2022/03/29 06:30:56;;;;;;;;;;;;;;;5.57;47.29;97160.55;110926;1239;60404;-63
2022/03/29 06:33:26;;;;;;;;;;;;;;;5.88;46.99;97162.05;110863;1241;70564;-63
2022/03/29 06:35:55;;;;;;;;;;;;;;;6.10;46.12;97161.33;110885;1241;67831;-63
2022/03/29 06:38:25;;;;;;;;;;;;;;;6.35;45.82;97161.05;111059;1241;69463;-64
2022/03/29 06:40:54;;;;;;;;;;;;;;;6.67;45.20;97161.88;110839;1241;60833;-62
2022/03/29 06:43:25;;;;;;;;;;;;;;;7.00;44.03;97162.96;111119;1241;60468;-61
2022/03/29 06:45:55;;;;;;;;;;;;;;;7.36;43.44;97157.09;111000;1239;72497;-66
2022/03/29 06:48:25;;;;;;;;;;;;;;;7.43;41.72;97156.08;111090;1240;68463;-62
2022/03/29 06:50:54;;;;;;;;;;;;;;;7.58;40.97;97155.80;110793;1239;69504;-62
2022/03/29 06:53:23;;;;;;;;;;;;;;;7.76;40.90;97155.71;111165;1238;60922;-65
2022/03/29 06:55:53;;;;;;;;;;;;;;;8.02;40.46;97154.11;111129;1240;60425;-65
2022/03/29 06:58:22;;;;;;;;;;;;;;;8.24;39.64;97156.29;110748;1240;71673;-63
2022/03/29 07:00:51;;;;;;;;;;;;;;;8.42;38.59;97161.02;111046;1240;67788;-63
2022/03/29 07:03:21;;;;;;;;;;;;;;;8.77;37.72;97157.95;110699;1240;69270;-64
2022/03/29 07:05:51;;;;;;;;;;;;;;;9.18;37.33;97156.56;110964;1239;60523;-65
2022/03/29 07:08:20;;;;;;;;;;;;;;;9.64;36.43;97157.26;110890;1241;60505;-64
2022/03/29 07:13:39;;;;;;;;;;;;;;;10.58;36.62;97157.61;110847;1241;68619;-63
2022/03/29 07:16:09;;;;;;;;;;;;;;;11.18;35.96;97155.00;110922;1241;68883;-68
2022/03/29 07:18:38;;;;;;;;;;;;;;;11.73;35.71;97153.90;111123;1239;60537;-63
2022/03/29 07:21:09;;;;;;;;;;;;;;;12.18;34.05;97149.68;111109;1241;60436;-66
2022/03/29 07:23:40;;;;;;;;;;;;;;;12.60;32.91;97146.29;111160;1241;71639;-64
2022/03/29 07:26:09;;;;;;;;;;;;;;;12.96;32.46;97140.23;111143;1240;67827;-63
2022/03/29 07:28:38;;;;;;;;;;;;;;;12.88;29.97;97140.03;110940;1241;68585;-63
2022/03/29 07:31:07;;;;;;;;;;;;;;;12.90;29.40;97145.30;111113;1239;60973;-63
2022/03/29 07:33:36;;;;;;;;;;;;;;;13.11;28.72;97145.08;111125;1238;60531;-63
2022/03/29 07:36:06;;;;;;;;;;;;;;;13.34;28.26;97140.33;110744;1240;71647;-64
2022/03/29 07:38:34;;;;;;;;;;;;;;;13.09;26.82;97135.81;111061;1240;68430;-63
2022/03/29 07:41:03;;;;;;;;;;;;;;;12.99;27.43;97131.39;110875;1241;69527;-63
2022/03/29 07:43:33;;;;;;;;;;;;;;;12.72;27.08;97125.02;110764;1241;60494;-63
2022/03/29 07:46:02;;;;;;;;;;;;;;;12.89;27.88;97127.59;110779;1241;60412;-64
2022/03/29 07:48:32;;;;;;;;;;;;;;;12.96;27.80;97124.02;110869;1240;72606;-62
2022/03/29 07:51:22;;;;;;;;;;;;;;;13.02;27.44;97121.50;110778;1241;67768;-63
2022/03/29 07:53:51;;;;;;;;;;;;;;;13.11;27.05;97120.80;110905;1241;68718;-63
2022/03/29 07:56:20;;;;;;;;;;;;;;;13.00;26.64;97117.73;110760;1240;60537;-65
2022/03/29 07:58:49;;;;;;;;;;;;;;;13.11;26.54;97109.00;110868;1241;60496;-63
2022/03/29 08:01:18;;;;;;;;;;;;;;;13.49;26.96;97114.98;110732;1241;71587;-65
2022/03/29 08:03:47;;;;;;;;;;;;;;;13.57;25.61;97115.64;110980;1240;68046;-64
2022/03/29 08:06:17;;;;;;;;;;;;;;;13.58;25.61;97112.41;111099;1240;69372;-62
2022/03/29 08:08:46;;;;;;;;;;;;;;;14.13;25.83;97107.77;111116;1240;60499;-67
2022/03/29 08:11:15;;;;;;;;;;;;;;;14.67;25.93;97098.86;110948;1241;60540;-65
2022/03/29 08:13:45;;;;;;;;;;;;;;;15.10;24.45;97091.10;110987;1241;72408;-61
2022/03/29 08:16:14;;;;;;;;;;;;;;;15.04;23.97;97089.43;110981;1241;66823;-64
2022/03/29 08:18:44;;;;;;;;;;;;;;;15.28;24.23;97089.75;111042;1240;69449;-65
2022/03/29 08:24:02;;;;;;;;;;;;;;;16.25;24.30;97095.41;110851;1241;60577;-65
2022/03/29 08:26:31;;;;;;;;;;;;;;;16.62;21.98;97088.88;110758;1241;72399;-62
2022/03/29 08:29:00;;;;;;;;;;;;;;;16.90;21.57;97088.00;110732;1244;67890;-65
2022/03/29 08:31:29;;;;;;;;;;;;;;;17.11;21.46;97083.64;110885;1241;68632;-63
2022/03/29 08:33:59;;;;;;;;;;;;;;;17.27;20.92;97084.38;110916;1241;60494;-63
2022/03/29 08:36:28;;;;;;;;;;;;;;;17.24;20.47;97076.80;110832;1241;60502;-65
2022/03/29 08:38:57;;;;;;;;;;;;;;;17.34;20.76;97075.80;110890;1241;70741;-63
2022/03/29 08:41:30;;;;;;;;;;;;;;;18.29;20.97;97072.77;110491;1243;68369;-65
2022/03/29 08:44:00;;;;;;;;;;;;;;;18.86;19.98;97070.16;110772;1241;68800;-63
2022/03/29 08:46:33;;;;;;;;;;;;;;;18.91;18.62;97060.65;110878;1241;60468;-63
2022/03/29 08:49:03;;;;;;;;;;;;;;;19.26;18.67;97057.60;111162;1240;60533;-64
2022/03/29 08:51:33;;;;;;;;;;;;;;;19.50;18.23;97059.10;111017;1240;72312;-63
2022/03/29 08:54:01;;;;;;;;;;;;;;;19.07;18.61;97050.14;110890;1241;68339;-64
2022/03/29 08:56:30;;;;;;;;;;;;;;;19.54;18.50;97044.83;111094;1241;67837;-64
2022/03/29 08:59:00;;;;;;;;;;;;;;;19.64;17.70;97041.20;111163;1241;60452;-64
2022/03/29 09:01:29;;;;;;;;;;;;;;;20.02;17.71;97041.56;111043;1240;60421;-65
2022/03/29 09:04:03;;;;;;;;;;;;;;;19.92;17.33;97038.62;111142;1241;72029;-65
2022/03/29 09:06:33;;;;;;;;;;;;;;;19.77;17.55;97029.59;111053;1240;67948;-63
2022/03/29 09:09:02;;;;;;;;;;;;;;;20.42;16.96;97017.71;111115;1241;69429;-67
2022/03/29 09:11:41;;;;;;;;;;;;;;;20.67;16.76;97014.72;111176;1240;60466;-64
2022/03/29 09:14:10;;;;;;;;;;;;;;;20.43;16.94;97013.84;111071;1240;60414;-62
2022/03/29 09:16:39;;;;;;;;;;;;;;;20.73;16.44;97011.96;111181;1241;71623;-63
2022/03/29 09:19:09;;;;;;;;;;;;;;;20.79;16.18;97008.71;110884;1241;67897;-63
2022/03/29 09:21:45;;;;;;;;;;;;;;;20.62;16.25;97007.89;110786;1241;69518;-64
2022/03/29 09:24:16;;;;;;;;;;;;;;;21.02;16.06;97003.55;110826;1241;60935;-62
2022/03/29 09:26:46;;;;;;;;;;;;;;;21.28;15.83;97001.27;110877;1241;60470;-65
2022/03/29 09:29:17;;;;;;;;;;;;;;;21.17;16.24;96994.31;111098;1240;71900;-64
2022/03/29 09:31:47;;;;;;;;;;;;;;;21.20;15.92;96988.63;111132;1239;68916;-65
2022/03/29 09:34:20;;;;;;;;;;;;;;;21.42;16.13;96982.23;110801;1241;68703;-63
2022/03/29 09:36:50;;;;;;;;;;;;;;;21.96;15.93;96977.91;110804;1240;60479;-63
2022/03/29 09:39:49;;;;;;;;;;;;;;;22.20;15.62;96968.58;111101;1241;60496;-63
2022/03/29 09:42:23;;;;;;;;;;;;;;;22.66;15.40;96962.65;110054;1246;72342;-64
2022/03/29 09:44:57;;;;;;;;;;;;;;;23.14;15.33;96958.36;110168;1247;67044;-63
2022/03/29 09:47:27;;;;;;;;;;;;;;;23.39;14.70;96949.52;110096;1247;68684;-62
2022/03/29 09:50:01;;;;;;;;;;;;;;;23.60;14.34;96947.56;110181;1247;60573;-64
2022/03/29 09:52:31;;;;;;;;;;;;;;;23.72;14.07;96942.42;110080;1247;60443;-63
2022/03/29 09:55:06;;;;;;;;;;;;;;;23.58;13.93;96938.79;110125;1247;72224;-64
2022/03/29 09:57:35;;;;;;;;;;;;;;;23.52;13.91;96937.95;110125;1247;68721;-62
2022/03/29 10:00:07;;;;;;;;;;;;;;;23.47;13.99;96935.13;110084;1247;68846;-63
2022/03/29 10:02:42;;;;;;;;;;;;;;;23.61;13.76;96928.40;110155;1247;60529;-63
2022/03/29 10:05:11;;;;;;;;;;;;;;;23.90;13.97;96916.20;110150;1247;60468;-66
2022/03/29 10:10:50;;;;;;;;;;;;;;;25.45;12.63;96907.17;110114;1247;68536;-62
2022/03/29 10:13:25;;;;;;;;;;;;;;;24.83;12.79;96900.15;110143;1247;68643;-64
2022/03/29 10:15:55;;;;;;;;;;;;;;;23.48;14.01;96902.98;110102;1247;60591;-66
2022/03/29 10:18:27;;;;;;;;;;;;;;;24.08;14.25;96898.64;110190;1241;60623;-64
2022/03/29 10:20:58;;;;;;;;;;;;;;;24.63;13.97;96896.30;110804;1241;71637;-63
2022/03/29 10:23:29;;;;;;;;;;;;;;;25.16;13.69;96893.80;110523;1242;69107;-63
2022/03/29 10:25:58;;;;;;;;;;;;;;;25.43;13.25;96892.08;110828;1241;69992;-63
2022/03/29 10:28:28;;;;;;;;;;;;;;;25.21;13.51;96894.23;110889;1241;60564;-63
2022/03/29 10:30:57;;;;;;;;;;;;;;;24.73;13.90;96892.35;110818;1241;60496;-63
2022/03/29 10:33:31;;;;;;;;;;;;;;;24.91;14.34;96887.35;110868;1240;72409;-62
2022/03/29 10:36:05;;;;;;;;;;;;;;;24.60;15.04;96881.61;110867;1241;68773;-65
2022/03/29 10:38:46;;;;;;;;;;;;;;;23.44;15.48;96877.30;110739;1241;68823;-65
2022/03/29 10:41:29;;;;;;;;;;;;;;;24.04;15.23;96872.15;110798;1241;60532;-64
2022/03/29 10:44:08;;;;;;;;;;;;;;;24.44;14.91;96867.65;110852;1241;60509;-63
2022/03/29 10:46:42;;;;;;;;;;;;;;;25.22;14.76;96861.83;110875;1241;71704;-64
2022/03/29 10:49:23;;;;;;;;;;;;;;;25.63;14.38;96856.14;110882;1241;67876;-62
2022/03/29 10:51:57;;;;;;;;;;;;;;;25.36;14.42;96852.63;110831;1241;69516;-66
2022/03/29 10:54:26;;;;;;;;;;;;;;;25.52;14.71;96848.59;110826;1241;60465;-63
2022/03/29 10:56:57;;;;;;;;;;;;;;;25.64;14.83;96843.66;110853;1241;60539;-64
2022/03/29 10:59:26;;;;;;;;;;;;;;;25.88;14.72;96833.75;110722;1242;71825;-63
2022/03/29 11:02:12;;;;;;;;;;;;;;;26.39;14.61;96826.34;110699;1242;68566;-63
2022/03/29 11:05:00;;;;;;;;;;;;;;;26.27;15.19;96823.80;110811;1241;68674;-63
2022/03/29 11:07:30;;;;;;;;;;;;;;;25.51;15.33;96823.93;110899;1241;60464;-63
2022/03/29 11:10:09;;;;;;;;;;;;;;;24.50;16.10;96813.21;110939;1241;60467;-62
2022/03/29 11:12:58;;;;;;;;;;;;;;;24.31;16.51;96803.46;110827;1241;71542;-63
2022/03/29 11:15:32;;;;;;;;;;;;;;;25.21;16.09;96798.84;110750;1240;68537;-64
2022/03/29 11:18:04;;;;;;;;;;;;;;;25.72;15.63;96793.67;110930;1241;68834;-63
2022/03/29 11:20:38;;;;;;;;;;;;;;;26.02;15.62;96791.29;110807;1241;60485;-64
2022/03/29 11:23:08;;;;;;;;;;;;;;;27.06;14.71;96794.60;110765;1241;60452;-62
2022/03/29 11:25:45;;;;;;;;;;;;;;;27.39;13.80;96780.88;111165;1241;72562;-65
2022/03/29 11:28:16;;;;;;;;;;;;;;;27.83;14.24;96773.33;110928;1241;68646;-65
2022/03/29 11:30:45;;;;;;;;;;;;;;;27.93;14.19;96768.23;111037;1240;69439;-65
2022/03/29 11:33:14;;;;;;;;;;;;;;;27.98;13.70;96755.00;110637;1243;60567;-63
2022/03/29 11:35:51;;;;;;;;;;;;;;;27.67;13.96;96749.18;111097;1241;60412;-64
2022/03/29 11:38:21;;;;;;;;;;;;;;;27.13;14.03;96750.90;111177;1241;70703;-63
2022/03/29 11:40:49;;;;;;;;;;;;;;;26.52;14.77;96745.46;111182;1240;68118;-63
2022/03/29 11:43:23;;;;;;;;;;;;;;;26.94;14.63;96742.39;111160;1239;69991;-65
2022/03/29 11:45:53;;;;;;;;;;;;;;;27.37;14.30;96731.89;110865;1241;60547;-62
2022/03/29 11:48:24;;;;;;;;;;;;;;;27.60;14.55;96728.41;111084;1241;60459;-65
2022/03/29 11:50:55;;;;;;;;;;;;;;;28.03;14.45;96721.70;111029;1241;71497;-63
2022/03/29 11:53:24;;;;;;;;;;;;;;;28.44;13.87;96718.38;111091;1240;67778;-64
2022/03/29 11:55:59;;;;;;;;;;;;;;;28.02;13.98;96718.50;111106;1241;68873;-64
2022/03/29 11:58:29;;;;;;;;;;;;;;;27.30;14.78;96713.34;111175;1240;60479;-64
2022/03/29 12:01:07;;;;;;;;;;;;;;;26.64;14.98;96715.77;111162;1241;60475;-63
2022/03/29 12:03:37;;;;;;;;;;;;;;;26.32;15.29;96713.91;110730;1241;71765;-65
2022/03/29 12:06:14;;;;;;;;;;;;;;;26.12;15.99;96708.98;111130;1241;68601;-65
2022/03/29 12:08:43;;;;;;;;;;;;;;;26.08;16.31;96711.00;111071;1241;69104;-64
2022/03/29 12:11:13;;;;;;;;;;;;;;;26.20;16.04;96709.63;110750;1241;60533;-65
2022/03/29 12:13:46;;;;;;;;;;;;;;;25.88;16.21;96699.28;111163;1240;60550;-64
2022/03/29 12:16:15;;;;;;;;;;;;;;;26.14;16.06;96693.07;110836;1241;71550;-65
2022/03/29 12:18:45;;;;;;;;;;;;;;;26.36;16.11;96693.26;111109;1239;68087;-64
2022/03/29 12:21:15;;;;;;;;;;;;;;;26.34;16.00;96680.88;111039;1239;68749;-64
2022/03/29 12:23:46;;;;;;;;;;;;;;;25.79;16.64;96681.55;110866;1241;60487;-65
2022/03/29 12:26:18;;;;;;;;;;;;;;;25.22;16.67;96679.38;111124;1241;60527;-64
2022/03/29 12:28:47;;;;;;;;;;;;;;;26.20;16.06;96679.23;111026;1239;72297;-64
2022/03/29 12:31:17;;;;;;;;;;;;;;;27.02;15.83;96674.48;111136;1239;67790;-64
2022/03/29 12:33:47;;;;;;;;;;;;;;;27.33;15.58;96673.77;111144;1238;68218;-64
2022/03/29 12:36:16;;;;;;;;;;;;;;;27.01;15.58;96670.02;110831;1241;60524;-63
2022/03/29 12:38:52;;;;;;;;;;;;;;;27.39;15.31;96663.54;111167;1241;60414;-63
2022/03/29 12:41:37;;;;;;;;;;;;;;;27.97;15.32;96660.48;110745;1242;72990;-63
2022/03/29 12:44:08;;;;;;;;;;;;;;;28.55;14.58;96655.57;111164;1240;67942;-65
2022/03/29 12:46:38;;;;;;;;;;;;;;;28.63;14.73;96647.60;110785;1241;69721;-64
2022/03/29 12:49:08;;;;;;;;;;;;;;;28.81;14.54;96646.74;111125;1241;60409;-64
2022/03/29 12:51:38;;;;;;;;;;;;;;;28.08;14.82;96642.27;111169;1241;60489;-65
2022/03/29 12:54:08;;;;;;;;;;;;;;;28.27;14.84;96634.02;111166;1240;72913;-64
2022/03/29 12:56:38;;;;;;;;;;;;;;;28.07;14.66;96632.36;111059;1241;67200;-64
2022/03/29 12:59:27;;;;;;;;;;;;;;;27.31;15.23;96622.27;111054;1241;69366;-63
2022/03/29 13:02:14;;;;;;;;;;;;;;;27.72;15.35;96623.70;110754;1241;60528;-61
2022/03/29 13:04:48;;;;;;;;;;;;;;;27.27;15.37;96620.67;111122;1240;60486;-65
2022/03/29 13:07:33;;;;;;;;;;;;;;;27.09;15.73;96612.21;111070;1240;71400;-64
2022/03/29 13:10:10;;;;;;;;;;;;;;;27.91;15.48;96612.61;111123;1241;67544;-63
2022/03/29 13:12:50;;;;;;;;;;;;;;;28.23;14.71;96604.83;111089;1241;69800;-64
2022/03/29 13:15:48;;;;;;;;;;;;;;;28.12;15.00;96605.21;111094;1241;60476;-65